createdAt,value
2018-06-05T00:03:24.893Z,69.80
2018-06-05T00:05:53.456Z,70.00
2018-06-05T00:08:21.974Z,70.20
2018-06-05T00:13:18.576Z,70.50
2018-06-05T00:15:47.050Z,70.40
2018-06-05T00:20:43.631Z,70.40
2018-06-05T00:23:12.157Z,70.20
2018-06-05T00:25:40.611Z,70.20
2018-06-05T00:28:09.076Z,70.10
2018-06-05T00:30:37.545Z,70.20
2018-06-05T00:33:05.999Z,70.40
2018-06-05T00:35:34.478Z,71.10
2018-06-05T00:38:03.036Z,70.70
2018-06-05T00:40:31.518Z,70.90
2018-06-05T00:42:59.975Z,71.00
2018-06-05T00:45:28.430Z,71.00
2018-06-05T00:50:25.035Z,71.40
2018-06-05T00:52:53.536Z,71.50
2018-06-05T00:55:21.990Z,71.60
2018-06-05T01:00:18.589Z,72.40
2018-06-05T01:02:47.065Z,72.30
2018-06-05T01:05:15.547Z,71.90
2018-06-05T01:07:44.075Z,72.00
2018-06-05T01:10:12.605Z,71.80
2018-06-05T01:12:41.167Z,71.90
2018-06-05T01:15:09.747Z,72.10
2018-06-05T01:17:38.317Z,72.40
2018-06-05T01:20:06.897Z,72.60
2018-06-05T01:22:35.421Z,72.80
2018-06-05T01:25:04.007Z,72.70
2018-06-05T01:27:32.529Z,72.80
2018-06-05T01:30:01.042Z,73.00
2018-06-05T01:32:29.574Z,73.30
2018-06-05T01:34:58.090Z,73.40
2018-06-05T01:37:26.598Z,73.30
2018-06-05T01:39:55.120Z,73.50
2018-06-05T01:47:20.037Z,73.80
2018-06-05T01:49:48.474Z,73.70
2018-06-05T01:54:45.074Z,74.10
2018-06-05T01:57:13.556Z,74.10
2018-06-05T01:59:42.034Z,74.10
2018-06-05T02:02:10.494Z,74.40
2018-06-05T02:07:07.158Z,74.60
2018-06-05T02:12:03.752Z,74.70
2018-06-05T02:14:32.245Z,74.80
2018-06-05T02:17:00.738Z,74.70
2018-06-05T02:19:29.170Z,74.80
2018-06-05T02:21:57.640Z,75.00
2018-06-05T02:24:26.074Z,75.20
2018-06-05T02:26:54.529Z,75.10
2018-06-05T02:31:51.140Z,75.20
2018-06-05T02:34:19.624Z,75.30
2018-06-05T02:36:48.119Z,75.80
2018-06-05T02:39:16.588Z,75.90
2018-06-05T02:41:45.107Z,75.70
2018-06-05T02:44:13.713Z,75.60
2018-06-05T02:49:10.370Z,76.00
2018-06-05T02:54:07.031Z,76.80
2018-06-05T02:56:35.501Z,76.40
2018-06-05T02:59:03.971Z,76.50
2018-06-05T03:01:32.430Z,76.50
2018-06-05T03:04:00.916Z,76.50
2018-06-05T03:06:29.362Z,76.60
2018-06-05T03:08:57.853Z,76.60
2018-06-05T03:11:26.348Z,76.40
2018-06-05T03:16:23.018Z,76.70
2018-06-05T03:18:51.489Z,76.90
2018-06-05T03:23:48.737Z,77.20
2018-06-05T03:26:17.158Z,77.60
2018-06-05T03:28:45.606Z,77.50
2018-06-05T03:31:14.078Z,77.80
2018-06-05T03:33:42.551Z,77.70
2018-06-05T03:36:11.033Z,77.70
2018-06-05T03:38:39.688Z,77.70
2018-06-05T03:41:08.148Z,77.80
2018-06-05T03:43:36.642Z,77.80
2018-06-05T03:46:05.086Z,77.80
2018-06-05T03:48:33.558Z,78.00
2018-06-05T03:51:02.045Z,78.00
2018-06-05T03:53:30.524Z,77.90
2018-06-05T03:55:59.068Z,77.80
2018-06-05T03:58:27.717Z,78.00
2018-06-05T04:00:56.209Z,78.00
2018-06-05T04:03:24.826Z,78.10
2018-06-05T04:05:53.318Z,78.40
2018-06-05T04:08:21.818Z,78.50
2018-06-05T04:10:50.310Z,78.30
2018-06-05T04:15:47.100Z,78.50
2018-06-05T04:18:15.544Z,78.50
2018-06-05T04:23:13.020Z,78.50
2018-06-05T04:25:41.530Z,78.20
2018-06-05T04:30:45.518Z,78.00
2018-06-05T04:33:14.022Z,78.20
2018-06-05T04:35:42.564Z,78.20
2018-06-05T04:38:11.036Z,78.20
2018-06-05T04:40:39.613Z,78.20
2018-06-05T04:45:36.397Z,78.30
2018-06-05T04:48:05.620Z,78.10
2018-06-05T04:50:34.127Z,77.90
2018-06-05T04:53:02.573Z,78.10
2018-06-05T04:55:31.029Z,78.00
2018-06-05T05:00:27.703Z,78.40
2018-06-05T05:02:56.163Z,78.00
2018-06-05T05:05:24.642Z,78.00
2018-06-05T05:07:53.541Z,78.00
2018-06-05T05:10:21.986Z,77.60
2018-06-05T05:12:50.424Z,78.20
2018-06-05T05:15:18.892Z,78.10
2018-06-05T05:20:15.616Z,77.90
2018-06-05T05:22:44.147Z,77.60
2018-06-05T05:25:12.624Z,77.90
2018-06-05T05:27:41.544Z,78.40
2018-06-05T05:35:06.364Z,78.60
2018-06-05T05:37:34.825Z,78.30
2018-06-05T05:40:03.302Z,77.90
2018-06-05T05:42:31.850Z,76.80
2018-06-05T05:45:00.327Z,76.50
2018-06-05T05:47:28.795Z,76.40
2018-06-05T05:49:57.280Z,76.10
2018-06-05T05:52:25.724Z,76.20
2018-06-05T05:54:54.226Z,76.50
2018-06-05T05:57:22.745Z,76.40
2018-06-05T05:59:51.243Z,76.40
2018-06-05T06:02:19.687Z,76.40
2018-06-05T06:04:48.129Z,76.10
2018-06-05T06:07:16.619Z,75.90
2018-06-05T06:09:45.423Z,76.10
2018-06-05T06:12:14.354Z,76.00
2018-06-05T06:14:42.819Z,76.10
2018-06-05T06:17:11.308Z,76.00
2018-06-05T06:19:39.764Z,76.00
2018-06-05T06:22:08.237Z,75.70
2018-06-05T06:27:04.962Z,76.10
2018-06-05T06:29:33.391Z,76.00
2018-06-05T06:34:30.162Z,76.30
2018-06-05T06:39:27.816Z,76.60
2018-06-05T06:41:56.266Z,76.60
2018-06-05T06:44:24.802Z,76.30
2018-06-05T06:46:53.251Z,76.20
2018-06-05T06:49:21.800Z,76.10
2018-06-05T06:51:50.351Z,76.20
2018-06-05T06:54:18.854Z,76.10
2018-06-05T06:59:15.544Z,75.90
2018-06-05T07:01:44.099Z,74.90
2018-06-05T07:04:12.552Z,74.10
2018-06-05T07:06:41.119Z,73.50
2018-06-05T07:09:09.537Z,72.80
2018-06-05T07:11:38.053Z,71.80
2018-06-05T07:16:34.771Z,70.70
2018-06-05T07:19:03.220Z,71.10
2018-06-05T07:21:31.736Z,70.60
2018-06-05T07:24:00.233Z,67.70
2018-06-05T07:26:28.688Z,66.70
2018-06-05T07:28:57.239Z,66.90
2018-06-05T07:33:53.833Z,66.80
2018-06-05T07:36:22.325Z,66.50
2018-06-05T07:38:50.802Z,65.80
2018-06-05T07:41:19.271Z,65.40
2018-06-05T07:46:16.565Z,64.60
2018-06-05T07:48:45.648Z,65.20
2018-06-05T07:51:14.122Z,63.10
2018-06-05T07:56:10.807Z,64.70
2018-06-05T07:58:39.288Z,65.40
2018-06-05T08:01:07.766Z,66.10
2018-06-05T08:03:36.234Z,66.40
2018-06-05T08:08:32.824Z,66.00
2018-06-05T08:11:01.328Z,66.50
2018-06-05T08:13:29.975Z,66.80
2018-06-05T08:18:26.677Z,66.20
2018-06-05T08:20:55.156Z,65.50
2018-06-05T08:23:23.705Z,64.10
2018-06-05T08:25:52.518Z,63.50
2018-06-05T08:30:49.287Z,63.40
2018-06-05T08:33:17.855Z,62.90
2018-06-05T08:35:46.331Z,62.70
2018-06-05T08:38:14.789Z,62.20
2018-06-05T08:40:43.370Z,61.20
2018-06-05T08:43:11.859Z,60.90
2018-06-05T08:45:40.324Z,62.10
2018-06-05T08:48:08.824Z,61.50
2018-06-05T08:50:37.358Z,60.60
2018-06-05T08:55:33.982Z,60.00
2018-06-05T08:58:02.556Z,60.80
2018-06-05T09:00:31.029Z,61.20
2018-06-05T09:02:59.539Z,60.60
2018-06-05T09:05:28.017Z,59.20
2018-06-05T09:07:56.491Z,58.10
2018-06-05T09:10:25.067Z,57.90
2018-06-05T09:12:53.563Z,59.00
2018-06-05T09:15:23.026Z,59.70
2018-06-05T09:20:19.856Z,60.30
2018-06-05T09:22:48.323Z,61.00
2018-06-05T09:25:16.909Z,61.40
2018-06-05T09:27:45.367Z,60.10
2018-06-05T09:32:42.013Z,59.30
2018-06-05T09:35:11.063Z,60.00
2018-06-05T09:37:39.547Z,59.50
2018-06-05T09:40:08.686Z,58.20
2018-06-05T09:42:37.156Z,59.20
2018-06-05T09:45:05.846Z,58.90
2018-06-05T09:47:34.418Z,58.10
2018-06-05T09:50:02.909Z,59.30
2018-06-05T09:52:31.499Z,58.40
2018-06-05T09:54:59.927Z,59.10
2018-06-05T09:59:56.639Z,60.20
2018-06-05T10:02:25.132Z,58.80
2018-06-05T10:04:54.222Z,57.50
2018-06-05T10:07:22.659Z,57.40
2018-06-05T10:09:51.136Z,58.40
2018-06-05T10:14:47.752Z,58.50
2018-06-05T10:17:16.215Z,59.00
2018-06-05T10:22:13.836Z,57.50
2018-06-05T10:24:42.339Z,57.10
2018-06-05T10:27:10.827Z,57.20
2018-06-05T10:29:39.275Z,57.70
2018-06-05T10:32:07.783Z,58.30
2018-06-05T10:34:36.229Z,58.10
2018-06-05T10:42:01.324Z,57.50
2018-06-05T10:44:29.955Z,56.70
2018-06-05T10:49:26.764Z,57.20
2018-06-05T10:51:55.237Z,57.00
2018-06-05T10:54:23.700Z,57.40
2018-06-05T10:59:20.319Z,57.50
2018-06-05T11:01:48.794Z,56.60
2018-06-05T11:04:17.249Z,56.10
2018-06-05T11:06:45.742Z,55.30
2018-06-05T11:09:14.194Z,56.60
2018-06-05T11:11:42.735Z,54.50
2018-06-05T11:14:11.302Z,56.20
2018-06-05T11:16:39.880Z,57.30
2018-06-05T11:19:08.320Z,54.10
2018-06-05T11:21:36.775Z,55.90
2018-06-05T11:24:05.310Z,55.40
2018-06-05T11:29:01.948Z,55.80
2018-06-05T11:31:30.415Z,53.70
2018-06-05T11:33:58.958Z,52.50
2018-06-05T11:46:20.143Z,54.20
2018-06-05T11:48:48.615Z,53.40
2018-06-05T11:51:17.117Z,53.50
2018-06-05T11:56:13.763Z,52.50
2018-06-05T11:58:42.235Z,52.70
2018-06-05T12:01:10.720Z,54.60
2018-06-05T12:03:39.164Z,50.50
2018-06-05T12:06:07.645Z,52.90
2018-06-05T12:08:36.230Z,50.60
2018-06-05T12:13:32.984Z,50.00
2018-06-05T12:18:42.724Z,49.60
2018-06-05T12:21:11.202Z,49.40
2018-06-05T12:23:39.682Z,50.00
2018-06-05T12:26:08.140Z,50.70
2018-06-05T12:28:36.591Z,49.60
2018-06-05T12:31:05.147Z,49.90
2018-06-05T12:33:33.653Z,49.40
2018-06-05T12:38:30.361Z,49.00
2018-06-05T12:40:58.867Z,48.10
2018-06-05T12:43:27.377Z,49.40
2018-06-05T12:48:24.138Z,48.90
2018-06-05T12:53:20.804Z,49.60
2018-06-05T12:55:50.497Z,48.60
2018-06-05T12:58:18.939Z,49.90
2018-06-05T13:03:16.016Z,51.00
2018-06-05T13:05:44.494Z,49.70
2018-06-05T13:08:12.946Z,49.10
2018-06-05T13:10:41.466Z,49.90
2018-06-05T13:13:09.945Z,48.10
2018-06-05T13:18:06.592Z,45.40
2018-06-05T13:23:03.297Z,46.30
2018-06-05T13:25:31.761Z,46.50
2018-06-05T13:28:00.256Z,46.00
2018-06-05T13:30:28.706Z,46.70
2018-06-05T13:32:57.177Z,47.10
2018-06-05T13:35:25.693Z,47.10
2018-06-05T13:40:22.378Z,47.50
2018-06-05T13:42:50.849Z,46.70
2018-06-05T13:47:47.543Z,47.40
2018-06-05T13:50:16.171Z,47.70
2018-06-05T13:52:45.624Z,46.90
2018-06-05T13:55:14.189Z,46.70
2018-06-05T13:57:43.251Z,45.50
2018-06-05T14:00:11.781Z,46.70
2018-06-05T14:05:08.559Z,49.10
2018-06-05T14:10:05.356Z,48.40
2018-06-05T14:12:33.883Z,46.10
2018-06-05T14:15:02.356Z,46.70
2018-06-05T14:17:30.787Z,46.70
2018-06-05T14:22:27.533Z,46.80
2018-06-05T14:27:24.201Z,47.40
2018-06-05T14:29:52.666Z,46.70
2018-06-05T14:32:21.129Z,46.00
2018-06-05T14:34:49.600Z,45.10
2018-06-05T14:37:18.074Z,45.20
2018-06-05T14:39:47.461Z,44.10
2018-06-05T14:42:15.912Z,44.00
2018-06-05T14:44:44.484Z,44.20
2018-06-05T14:47:12.934Z,43.80
2018-06-05T14:49:41.428Z,43.20
2018-06-05T14:52:09.900Z,43.80
2018-06-05T14:54:38.417Z,44.70
2018-06-05T14:57:07.153Z,44.90
2018-06-05T14:59:36.178Z,44.50
2018-06-05T15:02:04.755Z,44.10
2018-06-05T15:04:33.237Z,44.60
2018-06-05T15:07:01.776Z,44.60
2018-06-05T15:09:30.247Z,44.70
2018-06-05T15:11:58.726Z,45.40
2018-06-05T15:14:27.373Z,45.40
2018-06-05T15:21:52.287Z,45.40
2018-06-05T15:24:20.796Z,44.80
2018-06-05T15:26:49.236Z,45.30
2018-06-05T15:29:17.698Z,45.90
2018-06-05T15:31:46.371Z,44.40
2018-06-05T15:34:15.039Z,42.70
2018-06-05T15:36:43.479Z,43.30
2018-06-05T15:39:12.166Z,44.30
2018-06-05T15:41:40.680Z,44.70
2018-06-05T15:44:09.151Z,44.00
2018-06-05T15:46:38.548Z,43.60
2018-06-05T15:49:07.053Z,44.00
2018-06-05T15:51:35.591Z,43.40
2018-06-05T15:54:04.184Z,43.40
2018-06-05T15:56:32.632Z,43.00
2018-06-05T15:59:01.112Z,43.20
2018-06-05T16:01:29.920Z,43.30
2018-06-05T16:03:58.461Z,43.00
2018-06-05T16:06:26.947Z,42.90
2018-06-05T16:08:55.425Z,42.70
2018-06-05T16:11:23.967Z,43.20
2018-06-05T16:13:52.457Z,44.10
2018-06-05T16:18:49.159Z,43.00
2018-06-05T16:21:17.670Z,43.50
2018-06-05T16:23:46.164Z,44.10
2018-06-05T16:26:14.683Z,43.50
2018-06-05T16:28:43.308Z,43.40
2018-06-05T16:31:11.814Z,43.90
2018-06-05T16:33:40.286Z,44.00
2018-06-05T16:36:08.835Z,43.70
2018-06-05T16:38:37.787Z,43.70
2018-06-05T16:41:06.334Z,43.00
2018-06-05T16:43:34.788Z,42.80
2018-06-05T16:48:31.470Z,42.30
2018-06-05T16:50:59.980Z,43.00
2018-06-05T16:53:28.470Z,43.40
2018-06-05T16:55:57.102Z,42.80
2018-06-05T17:00:53.864Z,44.20
2018-06-05T17:03:22.353Z,44.00
2018-06-05T17:05:50.853Z,43.60
2018-06-05T17:08:19.553Z,43.00
2018-06-05T17:13:16.617Z,44.10
2018-06-05T17:18:13.381Z,44.30
2018-06-05T17:28:06.424Z,44.60
2018-06-05T17:33:03.184Z,44.70
2018-06-05T17:38:00.048Z,44.70
2018-06-05T17:40:28.676Z,44.80
2018-06-05T17:42:57.476Z,45.00
2018-06-05T17:45:25.972Z,45.60
2018-06-05T17:47:54.429Z,45.20
2018-06-05T17:50:22.943Z,45.40
2018-06-05T17:52:51.489Z,45.10
2018-06-05T17:55:19.989Z,45.30
2018-06-05T17:57:49.560Z,45.50
2018-06-05T18:00:18.037Z,45.80
2018-06-05T18:05:15.054Z,45.90
2018-06-05T18:07:43.615Z,46.50
2018-06-05T18:12:41.168Z,46.90
2018-06-05T18:15:09.720Z,47.00
2018-06-05T18:17:38.826Z,47.50
2018-06-05T18:20:07.514Z,47.50
2018-06-05T18:22:36.058Z,47.60
2018-06-05T18:27:33.799Z,48.10
2018-06-05T18:30:02.342Z,47.80
2018-06-05T18:32:30.962Z,48.40
2018-06-05T18:34:59.519Z,48.60
2018-06-05T18:37:28.203Z,48.40
2018-06-05T18:42:25.550Z,48.50
2018-06-05T18:44:54.415Z,48.70
2018-06-05T18:47:24.091Z,49.20
2018-06-05T18:52:21.699Z,50.30
2018-06-05T18:54:50.488Z,50.70
2018-06-05T18:57:19.802Z,51.30
2018-06-05T18:59:48.615Z,51.80
2018-06-05T19:02:17.272Z,52.30
2018-06-05T19:04:46.529Z,52.60
2018-06-05T19:07:15.333Z,52.80
2018-06-05T19:09:44.251Z,52.90
2018-06-05T19:12:13.646Z,53.30
2018-06-05T19:14:42.381Z,53.60
2018-06-05T19:17:11.355Z,53.90
2018-06-05T19:19:40.298Z,54.40
2018-06-05T19:22:09.273Z,54.60
2018-06-05T19:24:38.085Z,54.70
2018-06-05T19:27:07.267Z,54.90
2018-06-05T19:29:36.252Z,55.00
2018-06-05T19:32:05.507Z,55.30
2018-06-05T19:39:32.023Z,56.10
2018-06-05T19:42:01.473Z,56.20
2018-06-05T19:44:30.424Z,56.40
2018-06-05T19:46:59.504Z,56.40
2018-06-05T19:51:58.258Z,57.10
2018-06-05T19:54:27.044Z,57.50
2018-06-05T19:56:55.870Z,57.80
2018-06-05T19:59:24.697Z,58.10
2018-06-05T20:01:53.576Z,58.30
2018-06-05T20:06:51.858Z,59.30
2018-06-05T20:09:21.443Z,58.80
2018-06-05T20:11:51.397Z,59.00
2018-06-05T20:14:21.059Z,59.30
2018-06-05T20:16:49.952Z,59.70
2018-06-05T20:19:21.210Z,60.00
2018-06-05T20:21:50.284Z,60.60
2018-06-05T20:24:19.430Z,61.20
2018-06-05T20:26:48.186Z,61.40
2018-06-05T20:29:17.141Z,61.70
2018-06-05T20:31:45.891Z,61.80
2018-06-05T20:34:14.901Z,62.10
2018-06-05T20:36:43.578Z,62.20
2018-06-05T20:39:13.521Z,62.30
2018-06-05T20:41:42.128Z,62.50
2018-06-05T20:44:10.788Z,62.70
2018-06-05T20:46:39.594Z,62.80
2018-06-05T20:49:08.194Z,63.00
2018-06-05T20:51:37.793Z,63.20
2018-06-05T20:54:06.712Z,63.40
2018-06-05T20:56:35.589Z,63.40
2018-06-05T20:59:04.707Z,63.50
2018-06-05T21:01:33.696Z,63.40
2018-06-05T21:04:02.339Z,63.60
2018-06-05T21:06:30.948Z,63.80
2018-06-05T21:08:59.483Z,63.70
2018-06-05T21:11:28.282Z,63.70
2018-06-05T21:16:25.154Z,63.80
2018-06-05T21:26:18.282Z,64.10
2018-06-05T21:31:15.060Z,64.30
2018-06-05T21:33:43.544Z,64.30
2018-06-05T21:36:12.043Z,64.40
2018-06-05T21:38:40.799Z,64.40
2018-06-05T21:41:09.273Z,64.40
2018-06-05T21:43:37.789Z,64.50
2018-06-05T21:46:06.340Z,64.80
2018-06-05T21:48:34.818Z,64.80
2018-06-05T21:51:03.294Z,64.80
2018-06-05T21:53:31.758Z,65.00
2018-06-05T21:56:00.262Z,65.30
2018-06-05T21:58:28.733Z,65.30
2018-06-05T22:00:57.215Z,65.20
2018-06-05T22:03:25.724Z,65.20
2018-06-05T22:05:54.228Z,65.20
2018-06-05T22:08:22.718Z,65.40
2018-06-05T22:10:51.164Z,65.50
2018-06-05T22:13:19.622Z,65.60
2018-06-05T22:15:48.083Z,65.80
2018-06-05T22:18:16.547Z,66.00
2018-06-05T22:20:44.994Z,66.00
2018-06-05T22:23:13.447Z,66.20
2018-06-05T22:28:10.147Z,66.40
2018-06-05T22:30:38.659Z,66.20
2018-06-05T22:33:07.151Z,66.30
2018-06-05T22:35:35.609Z,66.60
2018-06-05T22:38:04.102Z,66.70
2018-06-05T22:40:32.641Z,66.90
2018-06-05T22:45:29.398Z,67.20
2018-06-05T22:47:57.898Z,67.20
2018-06-05T22:55:22.827Z,67.60
2018-06-05T22:57:51.272Z,67.90
2018-06-05T23:00:24.156Z,68.20
2018-06-05T23:02:52.648Z,68.00
2018-06-05T23:05:21.062Z,68.10
2018-06-05T23:07:49.488Z,68.20
2018-06-05T23:10:17.948Z,68.30
2018-06-05T23:12:46.380Z,68.40
2018-06-05T23:15:14.873Z,68.70
2018-06-05T23:17:43.330Z,68.80
2018-06-05T23:20:11.868Z,68.90
2018-06-05T23:22:40.334Z,68.90
2018-06-05T23:25:08.827Z,69.00
2018-06-05T23:27:37.271Z,69.20
2018-06-05T23:30:05.751Z,69.40
2018-06-05T23:32:34.199Z,69.50
2018-06-05T23:35:02.611Z,69.80
2018-06-05T23:37:31.079Z,69.90
2018-06-05T23:42:27.691Z,70.00
2018-06-05T23:44:56.222Z,70.20
2018-06-05T23:47:24.670Z,70.30
2018-06-05T23:49:53.120Z,70.30
2018-06-05T23:52:21.639Z,70.60
2018-06-05T23:54:50.107Z,70.60
2018-06-05T23:57:18.591Z,70.80
2018-06-05T23:59:46.974Z,71.00
